METAR Data
IDs: Format: Raw Decoded Include TAF

Data at: 0859 UTC 09 Apr 2020

KAEL 090856Z AUTO 28005KT 10SM CLR A2988 RMK AO2
KAEL 090855Z AUTO 28005KT 10SM CLR A2988 RMK AO2
KAEL 090835Z AUTO 28006KT 10SM CLR A2989 RMK AO2
KAEL 090815Z AUTO 29006KT 10SM CLR A2989 RMK AO2
KAEL 090756Z AUTO 27005KT 10SM CLR A2991 RMK AO2
KAEL 090755Z AUTO 28004KT 10SM CLR A2991 RMK AO2
KAEL 090735Z AUTO 29005KT 10SM CLR A2990 RMK AO2
KAEL 090716Z AUTO 28005KT 10SM CLR A2990 RMK AO2
KAEL 090715Z AUTO 28005KT 10SM CLR A2990 RMK AO2
KAEL 090656Z AUTO 27004KT 10SM CLR A2991 RMK AO2
KAEL 090655Z AUTO 28004KT 10SM CLR A2991 RMK AO2
KAEL 090636Z AUTO 28005KT 10SM CLR A2992 RMK AO2
KAEL 090635Z AUTO 28005KT 10SM CLR A2991 RMK AO2
KAEL 090615Z AUTO 29005KT 10SM CLR A2991 RMK AO2
KAEL 090555Z AUTO 30007KT 10SM CLR A2992 RMK AO2
KAEL 090535Z AUTO 30006KT 10SM CLR A2992 RMK AO2
KAEL 090516Z AUTO 31007KT 10SM CLR A2992 RMK AO2
KAEL 090515Z AUTO 30008KT 10SM CLR A2992 RMK AO2
KAEL 090456Z AUTO 31010G15KT 10SM CLR A2992 RMK AO2
KAEL 090455Z AUTO 31009G15KT 10SM CLR A2992 RMK AO2
KAEL 090435Z AUTO 32009KT 10SM CLR A2992 RMK AO2
KAEL 090415Z AUTO 32011G16KT 10SM CLR A2991 RMK AO2
KAEL 090355Z AUTO 31011G15KT 10SM CLR A2991 RMK AO2
KAEL 090335Z AUTO 31008G18KT 10SM CLR A2991 RMK AO2
KAEL 090316Z AUTO 32009G14KT 10SM CLR A2991 RMK AO2
KAEL 090315Z AUTO 32010G14KT 10SM CLR A2991 RMK AO2
KAEL 090255Z AUTO 31011G16KT 10SM CLR A2991 RMK AO2
KAEL 090236Z AUTO 31008KT 10SM CLR A2990 RMK AO2
KAEL 090235Z AUTO 31009KT 10SM CLR A2990 RMK AO2
KAEL 090215Z AUTO 31007KT 10SM CLR A2990 RMK AO2
KAEL 090156Z AUTO 31009KT 10SM CLR A2990 RMK AO2
KAEL 090155Z AUTO 31009KT 10SM CLR A2990 RMK AO2
KAEL 090135Z AUTO 30010G15KT 280V340 10SM CLR A2989 RMK AO2
KAEL 090115Z AUTO 31010G20KT 10SM CLR A2988 RMK AO2
KAEL 090055Z AUTO 31012G21KT 10SM CLR A2988 RMK AO2
KAEL 090035Z AUTO 32013G21KT 10SM CLR A2987 RMK AO2
KAEL 090016Z AUTO 31013G24KT 290V350 10SM CLR A2987 RMK AO2
KAEL 090015Z AUTO 31013G24KT 10SM CLR A2987 RMK AO2
KAEL 082356Z AUTO 32010G19KT 10SM CLR A2986 RMK AO2
KAEL 082355Z AUTO 32011G20KT 10SM CLR A2986 RMK AO2
KAEL 082336Z AUTO 32013G23KT 10SM CLR A2986 RMK AO2
KAEL 082335Z AUTO 32013G25KT 10SM CLR A2986 RMK AO2
KAEL 082315Z AUTO 31017G22KT 10SM CLR A2986 RMK AO2
KAEL 082256Z AUTO 31013G26KT 10SM CLR A2985 RMK AO2
KAEL 082255Z AUTO 31014G26KT 10SM CLR A2985 RMK AO2
KAEL 082235Z AUTO 31016G22KT 10SM CLR A2985 RMK AO2
KAEL 082216Z AUTO 31016G24KT 10SM CLR A2985 RMK AO2
KAEL 082215Z AUTO 31014G24KT 10SM CLR A2985 RMK AO2
KAEL 082155Z AUTO 31013G22KT 10SM SCT090 A2985 RMK AO2
KAEL 082135Z AUTO 30014G24KT 10SM BKN090 11/M03 A2985 RMK AO2
KAEL 082115Z AUTO 30013G22KT 10SM BKN090 11/M01 A2985 RMK AO2 LTG DSNT E
KAEL 082055Z AUTO 31010G21KT 10SM BKN090 11/00 A2986 RMK AO2 LTG DSNT E
KAEL 082035Z AUTO 32011G21KT 10SM SCT100 10/M02 A2987 RMK AO2
KAEL 082015Z AUTO 32016G23KT 10SM SCT100 11/M03 A2986 RMK AO2 LTG DSNT E
KAEL 081956Z AUTO 33009G16KT 10SM BKN080 11/M01 A2986 RMK AO2
KAEL 081955Z AUTO 34012G23KT 10SM BKN080 11/M01 A2986 RMK AO2
KAEL 081935Z AUTO 33014G22KT 10SM BKN080 BKN090 11/M02 A2987 RMK AO2
KAEL 081916Z AUTO 32014G19KT 10SM SCT080 11/M01 A2986 RMK AO2
KAEL 081915Z AUTO 32014G19KT 10SM SCT080 11/M01 A2986 RMK AO2
KAEL 081855Z AUTO 31013G21KT 10SM CLR 11/00 A2985 RMK AO2
KAEL 081836Z AUTO 32009G18KT 10SM CLR 12/03 A2985 RMK AO2
KAEL 081835Z AUTO 32010G18KT 10SM CLR 12/03 A2985 RMK AO2
KAEL 081816Z AUTO 33010G22KT 10SM CLR 11/03 A2985 RMK AO2
KAEL 081815Z AUTO 33009G22KT 10SM CLR 11/03 A2985 RMK AO2
KAEL 081755Z AUTO 31008KT 260V330 10SM CLR 11/07 A2985 RMK AO2
KAEL 081735Z AUTO 28006KT 10SM SCT070 10/07 A2986 RMK AO2
KAEL 081715Z AUTO 29005KT 10SM SCT070 09/07 A2986 RMK AO2
KAEL 081655Z AUTO 27005KT 10SM SCT070 09/07 A2987 RMK AO2 P0001
KAEL 081636Z AUTO 29006KT 10SM -RA SCT039 SCT046 09/07 A2986 RMK AO2 P0001
KAEL 081635Z AUTO 29005KT 10SM -RA SCT039 SCT044 SCT050 09/07 A2986 RMK AO2 P0001
KAEL 081616Z AUTO 30003KT 10SM -RA SCT039 OVC048 09/07 A2986 RMK AO2 P0001
KAEL 081615Z AUTO 00000KT 10SM -RA SCT039 OVC048 09/07 A2986 RMK AO2 P0001
KAEL 081555Z AUTO 22004KT 7SM RA SCT031 BKN042 OVC050 09/08 A2985 RMK AO2 P0001
KAEL 081536Z AUTO 00000KT 7SM -RA SCT030 SCT037 OVC042 09/08 A2984 RMK AO2 P0001
KAEL 081535Z AUTO 00000KT 7SM -RA SCT027 SCT032 OVC042 09/08 A2984 RMK AO2 P0001
KAEL 081515Z AUTO 00000KT 7SM -RA SCT032 SCT039 BKN045 10/08 A2983 RMK AO2 P0001